Time;durP1;ratioP1;P1;durP2;ratioP2;P2;SDS_P1;SDS_P2;PMS_P1;PMS_P2;Temp;Humidity;BMP_temperature;BMP_pressure;BME280_temperature;BME280_humidity;BME280_pressure;Samples;Min_cycle;Max_cycle;Signal;HPM_P1;HPM_P2
2022/06/10 00:02:09;;;;;;;4.57;2.20;;;;;;;18.68;54.57;100470.38;4956376;28;20406;-79
2022/06/10 00:04:36;;;;;;;2.58;1.60;;;;;;;18.69;54.59;100472.03;4952043;28;20635;-79
2022/06/10 00:07:03;;;;;;;5.20;2.22;;;;;;;18.66;54.42;100471.34;4960820;28;20683;-82
2022/06/10 00:09:29;;;;;;;5.68;2.28;;;;;;;18.66;54.53;100473.22;4937071;28;20051;-80
2022/06/10 00:11:56;;;;;;;3.25;2.00;;;;;;;18.64;54.50;100473.38;4961543;28;20061;-80
2022/06/10 00:14:23;;;;;;;3.05;2.03;;;;;;;18.63;54.60;100469.00;4958969;28;20062;-80
2022/06/10 00:16:50;;;;;;;7.15;2.92;;;;;;;18.63;54.58;100469.00;4967057;28;20487;-80
2022/06/10 00:19:16;;;;;;;4.68;2.47;;;;;;;18.62;54.50;100466.50;4959108;28;20047;-79
2022/06/10 00:21:43;;;;;;;4.95;2.80;;;;;;;18.60;54.60;100466.69;4965944;28;20050;-79
2022/06/10 00:24:10;;;;;;;2.30;2.10;;;;;;;18.58;54.58;100462.47;4963108;28;20402;-79
2022/06/10 00:26:36;;;;;;;6.53;2.63;;;;;;;18.56;54.39;100464.50;4957526;28;20085;-79
2022/06/10 00:29:03;;;;;;;6.13;2.22;;;;;;;18.55;54.57;100470.91;4949627;28;20046;-79
2022/06/10 00:31:30;;;;;;;4.40;2.58;;;;;;;18.50;54.68;100468.72;4985071;28;20493;-80
2022/06/10 00:33:57;;;;;;;3.83;2.40;;;;;;;18.48;54.67;100476.13;4973606;28;20057;-80
2022/06/10 00:36:23;;;;;;;5.78;2.60;;;;;;;18.44;54.64;100470.25;4965483;28;20126;-80
2022/06/10 00:38:52;;;;;;;7.55;3.05;;;;;;;18.43;54.47;100467.72;4934714;28;20402;-80
2022/06/10 00:41:19;;;;;;;4.53;2.65;;;;;;;18.41;54.79;100467.06;4948838;28;20055;-80
2022/06/10 00:43:46;;;;;;;3.50;2.45;;;;;;;18.38;54.83;100470.94;4949710;28;20053;-80
2022/06/10 00:46:15;;;;;;;5.00;2.63;;;;;;;18.34;54.57;100469.59;4933189;28;20046;-87
2022/06/10 00:49:07;;;;;;;4.00;2.38;;;;;;;18.31;54.99;100474.47;4965689;28;20071;-88
2022/06/10 00:51:38;;;;;;;3.38;2.28;;;;;;;18.28;54.91;100470.25;4944047;28;20043;-87
2022/06/10 00:54:26;;;;;;;5.88;2.47;;;;;;;18.21;55.23;100475.47;4959612;28;20042;-79
2022/06/10 00:56:57;;;;;;;5.47;2.45;;;;;;;18.17;55.20;100476.00;4934013;28;20045;-80
2022/06/10 00:59:29;;;;;;;4.05;2.30;;;;;;;18.18;54.83;100472.31;4981324;28;20495;-79
2022/06/10 01:01:59;;;;;;;3.83;2.40;;;;;;;18.12;55.01;100467.63;4952969;28;20050;-79
2022/06/10 01:04:27;;;;;;;4.60;2.47;;;;;;;17.99;55.06;100474.34;4925258;28;20043;-80
2022/06/10 01:06:54;;;;;;;10.02;2.70;;;;;;;18.02;54.99;100470.47;4948130;28;20061;-79
2022/06/10 01:09:21;;;;;;;3.75;2.25;;;;;;;18.05;55.24;100474.66;4944660;28;20057;-81
2022/06/10 01:12:22;;;;;;;2.40;1.95;;;;;;;18.00;55.56;100484.06;4960018;28;20046;-80
2022/06/10 01:15:07;;;;;;;4.10;2.10;;;;;;;18.04;55.41;100481.03;4933882;28;20038;-80
2022/06/10 01:18:01;;;;;;;5.28;2.20;;;;;;;18.03;55.35;100484.75;4979624;28;20054;-80
2022/06/10 01:20:39;;;;;;;4.25;2.78;;;;;;;18.05;55.34;100485.41;4956966;28;20453;-80
2022/06/10 01:23:20;;;;;;;4.15;2.40;;;;;;;18.02;55.51;100483.06;4979800;28;20046;-80
2022/06/10 01:26:14;;;;;;;4.50;2.80;;;;;;;17.99;55.61;100485.09;4982964;28;20051;-80
2022/06/10 01:29:02;;;;;;;3.67;2.45;;;;;;;17.98;55.67;100479.88;4987423;28;20050;-80
2022/06/10 01:31:33;;;;;;;3.20;2.25;;;;;;;18.00;55.31;100488.59;4934881;28;20050;-80
2022/06/10 01:34:26;;;;;;;5.00;2.20;;;;;;;17.96;55.56;100490.78;4975771;28;20054;-80
2022/06/10 01:37:11;;;;;;;2.70;2.33;;;;;;;17.95;55.28;100483.72;4937779;28;20042;-80
2022/06/10 01:39:56;;;;;;;4.43;1.92;;;;;;;17.90;55.49;100488.75;4987568;28;20043;-80
2022/06/10 01:42:30;;;;;;;3.63;2.42;;;;;;;17.89;55.38;100488.94;4985459;28;20054;-80
2022/06/10 01:45:18;;;;;;;6.07;2.47;;;;;;;17.85;55.41;100496.47;4929652;28;20394;-79
2022/06/10 01:47:49;;;;;;;5.95;2.45;;;;;;;17.86;55.26;100502.69;4955750;28;20403;-80
2022/06/10 01:50:28;;;;;;;4.80;2.00;;;;;;;17.82;55.49;100496.81;4945832;28;20098;-80
2022/06/10 01:52:58;;;;;;;3.53;2.50;;;;;;;17.83;55.44;100498.50;4975837;28;20047;-80
2022/06/10 01:55:33;;;;;;;4.25;2.40;;;;;;;17.83;55.77;100494.97;4963077;28;20418;-80
2022/06/10 01:58:04;;;;;;;4.57;2.15;;;;;;;17.80;55.49;100493.47;4956847;28;20122;-81
2022/06/10 02:00:33;;;;;;;4.50;2.45;;;;;;;17.79;55.63;100497.13;4929254;28;20043;-80
2022/06/10 02:03:28;;;;;;;3.22;2.20;;;;;;;17.71;55.75;100495.28;4934539;28;20047;-80
2022/06/10 02:06:10;;;;;;;3.47;2.30;;;;;;;17.71;55.60;100497.97;4933057;28;20392;-88
2022/06/10 02:08:41;;;;;;;6.43;2.30;;;;;;;17.70;55.62;100500.81;4969250;28;20053;-88
2022/06/10 02:11:12;;;;;;;3.58;2.20;;;;;;;17.66;55.66;100496.78;4956619;28;20050;-88
2022/06/10 02:13:48;;;;;;;3.63;2.25;;;;;;;17.61;55.81;100499.13;4948878;28;20054;-82
2022/06/10 02:16:16;;;;;;;12.57;2.40;;;;;;;17.61;55.62;100504.50;4960872;28;20068;-85
2022/06/10 02:18:48;;;;;;;6.45;2.00;;;;;;;17.59;55.27;100504.66;4932255;28;20446;-85
2022/06/10 02:21:20;;;;;;;4.50;1.90;;;;;;;17.56;55.84;100510.34;4958050;28;20044;-86
2022/06/10 02:23:58;;;;;;;2.13;1.80;;;;;;;17.54;55.41;100513.19;4964334;28;20054;-86
2022/06/10 02:26:26;;;;;;;3.47;2.30;;;;;;;17.55;55.26;100517.59;4997174;28;20050;-86
2022/06/10 02:28:54;;;;;;;3.47;2.53;;;;;;;17.51;55.33;100520.75;4953139;28;20054;-85
2022/06/10 02:31:32;;;;;;;4.78;2.20;;;;;;;17.48;55.45;100521.09;4966132;28;20402;-86
2022/06/10 02:34:03;;;;;;;4.97;2.08;;;;;;;17.44;55.61;100533.97;4992662;28;20058;-86
2022/06/10 02:36:52;;;;;;;2.88;2.33;;;;;;;17.39;55.84;100527.41;4965958;28;20042;-86
2022/06/10 02:39:41;;;;;;;2.97;2.15;;;;;;;17.36;55.57;100528.59;4930065;28;20398;-86
2022/06/10 02:42:15;;;;;;;4.55;2.40;;;;;;;17.39;55.46;100543.53;4976867;28;20494;-86
2022/06/10 02:45:05;;;;;;;4.78;2.28;;;;;;;17.30;55.61;100538.13;4934963;28;20388;-86
2022/06/10 02:47:45;;;;;;;4.88;2.50;;;;;;;17.28;55.66;100550.88;4916040;28;20047;-86
2022/06/10 02:50:13;;;;;;;2.05;1.85;;;;;;;17.27;55.65;100551.84;4968252;28;20073;-88
2022/06/10 02:52:40;;;;;;;3.63;2.33;;;;;;;17.25;55.58;100551.19;4983832;28;20054;-88
2022/06/10 02:55:13;;;;;;;3.85;1.75;;;;;;;17.24;55.96;100556.72;4974364;28;20062;-88
2022/06/10 03:03:21;;;;;;;6.05;1.90;;;;;;;17.14;55.73;100563.03;4935821;28;20101;-80
2022/06/10 03:06:00;;;;;;;6.20;2.30;;;;;;;17.06;56.29;100562.19;4930258;28;20050;-89
2022/06/10 03:08:32;;;;;;;3.00;2.10;;;;;;;17.04;56.17;100569.53;4961189;28;20054;-85
2022/06/10 03:11:43;;;;;;;3.53;2.13;;;;;;;16.97;56.24;100564.00;4934179;28;20046;-85
2022/06/10 03:14:40;;;;;;;4.05;1.83;;;;;;;16.97;56.47;100565.81;4936070;28;20042;-86
2022/06/10 03:17:29;;;;;;;7.07;3.13;;;;;;;16.93;56.45;100566.13;4939736;28;20089;-85
2022/06/10 03:20:03;;;;;;;4.75;2.33;;;;;;;16.96;56.21;100562.28;4943848;28;20057;-85
2022/06/10 03:22:53;;;;;;;5.82;2.78;;;;;;;16.92;56.24;100579.72;4967904;28;20126;-86
2022/06/10 03:25:42;;;;;;;4.53;2.22;;;;;;;16.84;56.81;100579.66;4990023;28;20050;-85
2022/06/10 03:28:17;;;;;;;4.03;2.30;;;;;;;16.83;56.53;100584.19;4978039;28;20372;-84
2022/06/10 03:31:03;;;;;;;4.03;2.10;;;;;;;16.81;56.55;100580.81;4933204;28;20050;-85
2022/06/10 03:33:39;;;;;;;4.75;2.13;;;;;;;16.82;57.05;100587.03;4951905;28;20050;-86
2022/06/10 03:36:12;;;;;;;7.05;2.10;;;;;;;16.82;56.93;100585.19;4938937;28;20142;-86
2022/06/10 03:38:45;;;;;;;2.95;2.35;;;;;;;16.85;56.69;100592.06;4948940;28;20054;-86
2022/06/10 03:41:27;;;;;;;5.55;2.40;;;;;;;16.84;56.84;100590.38;4963957;28;20145;-82
2022/06/10 03:43:57;;;;;;;5.25;2.05;;;;;;;16.97;56.65;100593.50;4930030;28;20402;-84
2022/06/10 03:46:27;;;;;;;4.00;2.20;;;;;;;17.15;56.79;100598.78;4950668;28;20414;-83
2022/06/10 03:48:54;;;;;;;3.63;2.38;;;;;;;17.34;56.90;100600.38;4935622;28;20046;-83
2022/06/10 03:51:33;;;;;;;4.15;2.22;;;;;;;17.41;56.38;100612.16;4965536;28;20450;-84
2022/06/10 03:54:00;;;;;;;8.95;2.47;;;;;;;17.53;56.15;100607.38;4946690;28;20050;-84
2022/06/10 03:56:27;;;;;;;3.22;2.67;;;;;;;17.58;56.13;100611.25;4969274;28;20055;-86
2022/06/10 03:58:54;;;;;;;4.53;2.20;;;;;;;17.61;55.88;100610.06;4935328;28;20442;-86
2022/06/10 04:01:20;;;;;;;3.83;2.33;;;;;;;17.63;55.78;100618.81;4961082;28;20042;-86
2022/06/10 04:03:47;;;;;;;4.60;2.10;;;;;;;17.72;56.01;100623.19;4932872;28;20119;-86
2022/06/10 04:06:16;;;;;;;4.82;2.28;;;;;;;17.74;55.85;100629.25;4941090;28;20412;-86
2022/06/10 04:09:03;;;;;;;3.13;2.35;;;;;;;17.76;55.40;100626.41;4929759;28;20518;-87
2022/06/10 04:11:32;;;;;;;4.47;2.65;;;;;;;17.78;55.37;100635.13;4979538;28;20499;-87
2022/06/10 04:13:59;;;;;;;7.13;2.42;;;;;;;17.79;55.11;100634.13;4953329;28;20536;-87
2022/06/10 04:16:28;;;;;;;4.05;2.30;;;;;;;17.83;54.61;100637.34;4963993;28;20491;-86
2022/06/10 04:18:56;;;;;;;5.53;2.20;;;;;;;17.84;54.67;100626.47;4966568;28;20112;-85
2022/06/10 04:21:22;;;;;;;4.65;2.15;;;;;;;17.83;54.57;100635.50;4954042;28;20069;-85
2022/06/10 04:23:49;;;;;;;3.80;2.25;;;;;;;17.82;54.41;100628.47;4951918;28;20050;-84
2022/06/10 04:26:16;;;;;;;5.07;2.20;;;;;;;17.84;54.68;100639.06;4945639;28;20360;-86
2022/06/10 04:28:44;;;;;;;3.67;2.45;;;;;;;17.96;54.69;100637.72;4952692;28;20530;-86
2022/06/10 04:31:10;;;;;;;4.90;2.50;;;;;;;18.10;54.47;100633.56;4937855;28;20116;-84
2022/06/10 04:33:37;;;;;;;3.63;2.42;;;;;;;18.17;54.44;100635.44;4940099;28;20058;-84
2022/06/10 04:36:04;;;;;;;6.78;2.45;;;;;;;18.25;54.31;100636.47;4944791;28;20046;-87
2022/06/10 04:38:32;;;;;;;2.58;2.38;;;;;;;18.34;54.27;100639.00;4936034;28;20134;-86
2022/06/10 04:40:59;;;;;;;5.40;2.60;;;;;;;18.35;53.86;100637.97;4954778;28;20130;-86
2022/06/10 04:43:27;;;;;;;4.65;2.63;;;;;;;18.34;53.84;100641.69;4951577;28;20046;-86
2022/06/10 04:45:57;;;;;;;6.45;2.85;;;;;;;18.37;53.49;100638.66;4982404;28;20046;-87
2022/06/10 04:48:24;;;;;;;7.05;2.70;;;;;;;18.35;53.28;100645.22;4983534;28;20391;-87
2022/06/10 04:50:51;;;;;;;4.75;2.85;;;;;;;18.31;53.65;100644.69;4970076;28;20293;-87
2022/06/10 04:53:18;;;;;;;4.88;2.42;;;;;;;18.25;53.46;100647.22;4930450;28;20147;-84
2022/06/10 04:55:45;;;;;;;7.38;3.00;;;;;;;18.21;53.63;100647.53;4963403;28;20039;-84
2022/06/10 04:58:11;;;;;;;4.38;2.75;;;;;;;18.21;53.73;100652.06;4933944;28;20075;-86
2022/06/10 05:00:42;;;;;;;3.88;2.85;;;;;;;18.16;53.60;100652.56;4939379;28;20043;-87
2022/06/10 05:03:13;;;;;;;5.05;2.80;;;;;;;18.15;53.74;100658.09;4965140;28;20415;-86
2022/06/10 05:05:40;;;;;;;5.45;2.63;;;;;;;18.07;53.98;100658.09;4931629;28;20043;-87
2022/06/10 05:08:09;;;;;;;6.15;3.17;;;;;;;18.00;54.16;100657.91;4961504;28;20472;-86
2022/06/10 05:10:38;;;;;;;4.30;3.15;;;;;;;17.91;54.29;100662.41;4946375;28;20059;-86
2022/06/10 05:13:05;;;;;;;3.38;3.05;;;;;;;17.90;54.57;100657.19;4925358;28;20050;-85
2022/06/10 05:15:31;;;;;;;8.35;3.17;;;;;;;17.91;54.60;100657.03;4945827;28;20050;-85
2022/06/10 05:17:58;;;;;;;6.95;3.30;;;;;;;17.92;54.89;100660.56;4950442;28;20426;-87
2022/06/10 05:20:38;;;;;;;6.82;3.15;;;;;;;17.90;54.91;100660.72;4956879;28;20046;-86
2022/06/10 05:23:11;;;;;;;4.75;2.75;;;;;;;17.86;55.00;100656.69;4967940;28;20046;-86
2022/06/10 05:25:38;;;;;;;4.95;3.38;;;;;;;17.90;54.84;100658.03;4981332;28;20498;-85
2022/06/10 05:28:06;;;;;;;9.25;3.65;;;;;;;17.89;54.81;100658.22;4993918;28;20141;-85
2022/06/10 05:30:34;;;;;;;5.95;3.22;;;;;;;17.84;54.96;100661.38;4944674;28;20102;-85
2022/06/10 05:33:02;;;;;;;5.13;3.40;;;;;;;17.77;55.13;100663.00;4932946;28;20039;-84
2022/06/10 05:35:29;;;;;;;4.70;3.08;;;;;;;17.72;55.21;100671.53;4929830;28;20490;-84
2022/06/10 05:37:57;;;;;;;4.25;2.97;;;;;;;17.77;55.31;100671.06;4963074;28;20108;-84
2022/06/10 05:40:26;;;;;;;6.53;3.30;;;;;;;17.80;55.60;100676.13;4933491;28;20520;-84
2022/06/10 05:42:52;;;;;;;9.25;3.70;;;;;;;17.85;55.63;100671.13;4957355;28;20043;-84
2022/06/10 05:45:21;;;;;;;9.18;3.35;;;;;;;17.92;56.00;100674.00;4961736;28;20042;-84
2022/06/10 05:47:51;;;;;;;8.98;3.17;;;;;;;17.96;55.69;100664.59;4949086;28;20050;-83
2022/06/10 05:50:25;;;;;;;6.78;3.60;;;;;;;17.97;55.53;100667.13;4956492;28;20046;-86
2022/06/10 05:52:52;;;;;;;6.68;3.40;;;;;;;17.98;55.61;100670.66;4933752;28;20048;-85
2022/06/10 05:55:18;;;;;;;5.57;2.83;;;;;;;17.93;55.67;100667.63;4963258;28;20138;-85
2022/06/10 05:57:46;;;;;;;7.47;3.38;;;;;;;17.95;56.01;100673.69;4943911;28;20061;-85
2022/06/10 06:00:16;;;;;;;7.30;3.47;;;;;;;17.97;56.21;100677.88;4941923;28;20043;-85
2022/06/10 06:02:43;;;;;;;6.47;3.35;;;;;;;18.04;56.37;100679.91;4947478;28;20047;-85
2022/06/10 06:05:11;;;;;;;6.28;3.33;;;;;;;18.06;56.20;100677.91;4947054;28;20121;-83
2022/06/10 06:07:44;;;;;;;5.43;3.13;;;;;;;18.11;56.93;100680.94;4949188;28;20051;-85
2022/06/10 06:10:17;;;;;;;7.15;3.63;;;;;;;18.14;56.88;100677.91;4943143;28;20058;-84
2022/06/10 06:12:44;;;;;;;5.90;3.20;;;;;;;18.18;56.95;100680.13;4928848;28;20078;-83
2022/06/10 06:15:12;;;;;;;5.63;3.38;;;;;;;18.28;56.97;100676.44;4947569;28;20055;-83
2022/06/10 06:17:41;;;;;;;5.50;3.13;;;;;;;18.27;56.83;100675.63;4962791;28;20126;-83
2022/06/10 06:20:11;;;;;;;5.07;3.25;;;;;;;18.27;57.05;100678.31;4943480;28;20048;-83
2022/06/10 06:22:38;;;;;;;6.38;3.28;;;;;;;18.25;57.54;100676.78;4970290;28;20126;-83
2022/06/10 06:25:05;;;;;;;4.50;3.10;;;;;;;18.30;57.74;100685.19;4974331;28;20395;-84
2022/06/10 06:27:32;;;;;;;6.43;2.80;;;;;;;18.36;57.79;100671.91;4980102;28;20043;-83
2022/06/10 06:30:00;;;;;;;4.35;2.97;;;;;;;18.42;57.99;100676.66;4967100;28;20112;-83
2022/06/10 06:32:27;;;;;;;6.15;3.53;;;;;;;18.43;58.33;100677.47;4964591;28;20038;-84
2022/06/10 06:34:54;;;;;;;7.57;3.60;;;;;;;18.49;58.17;100673.28;4949841;28;20397;-84
2022/06/10 06:37:21;;;;;;;4.95;3.40;;;;;;;18.49;58.39;100675.97;4947366;28;20116;-84
2022/06/10 06:39:48;;;;;;;6.00;3.30;;;;;;;18.53;58.45;100680.84;4934084;28;20101;-84
2022/06/10 06:42:15;;;;;;;10.10;3.90;;;;;;;18.62;58.69;100674.47;4945649;28;20529;-84
2022/06/10 06:44:55;;;;;;;4.00;2.58;;;;;;;18.68;58.60;100672.97;4978736;28;20109;-87
2022/06/10 06:47:42;;;;;;;8.70;3.22;;;;;;;18.75;58.49;100682.06;4945898;28;20046;-87
2022/06/10 06:50:13;;;;;;;7.88;2.40;;;;;;;18.78;58.53;100688.97;4994765;28;20413;-87
2022/06/10 06:52:41;;;;;;;7.03;3.00;;;;;;;18.84;57.98;100682.91;4994703;28;20050;-87
2022/06/10 06:55:09;;;;;;;7.07;2.45;;;;;;;18.84;57.63;100677.53;4941387;28;20042;-87
2022/06/10 06:57:36;;;;;;;9.23;2.88;;;;;;;18.93;57.25;100689.09;4933793;28;20047;-87
2022/06/10 07:00:06;;;;;;;6.28;2.55;;;;;;;18.98;56.76;100681.38;4949470;28;20455;-88
2022/06/10 07:02:35;;;;;;;7.07;2.58;;;;;;;19.02;56.72;100686.25;4981543;28;20053;-88
2022/06/10 07:05:03;;;;;;;3.83;2.75;;;;;;;19.11;56.57;100683.53;4977132;28;20130;-88
2022/06/10 07:07:35;;;;;;;10.38;2.83;;;;;;;19.13;56.20;100685.03;4945154;28;20034;-86
2022/06/10 07:10:04;;;;;;;8.93;3.10;;;;;;;19.14;55.99;100685.91;4949485;28;20066;-87
2022/06/10 07:12:35;;;;;;;6.70;3.03;;;;;;;19.13;55.58;100678.84;4945481;28;20406;-87
2022/06/10 07:15:05;;;;;;;10.73;2.78;;;;;;;19.19;55.92;100689.78;4948375;28;20050;-88
2022/06/10 07:18:25;;;;;;;7.45;2.60;;;;;;;19.05;55.54;100683.22;4931256;28;20122;-87
2022/06/10 07:20:52;;;;;;;7.68;2.50;;;;;;;19.11;56.44;100687.09;4908607;28;20567;-87
2022/06/10 07:23:21;;;;;;;6.15;2.63;;;;;;;19.09;56.52;100679.19;4942554;28;20045;-87
2022/06/10 07:25:49;;;;;;;7.72;3.03;;;;;;;19.22;56.65;100688.59;4953328;28;20516;-87
2022/06/10 07:28:16;;;;;;;6.78;2.63;;;;;;;19.29;57.12;100682.34;4972070;28;20050;-87
2022/06/10 07:30:46;;;;;;;4.63;2.50;;;;;;;19.35;57.33;100680.81;4945133;28;20518;-86
2022/06/10 07:33:14;;;;;;;8.45;3.55;;;;;;;19.38;57.68;100683.16;4946377;28;20081;-86
2022/06/10 07:35:41;;;;;;;6.25;2.50;;;;;;;19.35;57.25;100669.19;4932698;28;23331;-86
2022/06/10 07:38:10;;;;;;;6.70;2.90;;;;;;;19.33;57.41;100673.91;4944156;28;20965;-86
2022/06/10 07:43:41;;;;;;;;;;;;;;;19.27;57.98;100668.19;4932945;28;20109;-86
2022/06/10 07:46:10;;;;;;;8.18;2.58;;;;;;;19.36;57.75;100663.66;4946138;28;20008;-85
2022/06/10 07:48:37;;;;;;;6.70;2.42;;;;;;;19.39;57.46;100668.69;4933988;28;20047;-86
2022/06/10 07:51:04;;;;;;;12.00;3.05;;;;;;;19.41;57.43;100673.88;4963287;28;20051;-84
2022/06/10 07:53:31;;;;;;;8.32;3.03;;;;;;;19.39;57.46;100676.78;4911006;28;20175;-85
2022/06/10 07:56:00;;;;;;;8.13;2.97;;;;;;;19.37;57.19;100673.41;4932710;28;20428;-86
2022/06/10 07:58:32;;;;;;;6.88;2.88;;;;;;;19.44;57.05;100663.63;4947412;28;20067;-85
2022/06/10 08:00:59;;;;;;;7.22;2.53;;;;;;;19.45;57.07;100659.06;4924784;28;20384;-87
2022/06/10 08:03:27;;;;;;;4.22;2.25;;;;;;;19.45;57.38;100667.97;4946898;28;20050;-86
2022/06/10 08:05:55;;;;;;;10.82;2.92;;;;;;;19.48;57.20;100664.94;4949879;28;20451;-84
2022/06/10 08:08:22;;;;;;;5.47;3.10;;;;;;;19.53;57.46;100659.88;4954691;28;20105;-84
2022/06/10 08:10:48;;;;;;;6.45;3.10;;;;;;;19.56;57.39;100664.06;4944261;28;20471;-84
2022/06/10 08:13:15;;;;;;;10.38;3.42;;;;;;;19.63;56.88;100658.84;4947479;28;20039;-84
2022/06/10 08:15:44;;;;;;;7.00;2.60;;;;;;;19.57;57.01;100657.69;4933298;28;20057;-84
2022/06/10 08:18:14;;;;;;;5.22;2.70;;;;;;;19.54;57.25;100660.72;4962962;28;20054;-84
2022/06/10 08:23:29;;;;;;;4.15;2.50;;;;;;;19.60;57.33;100654.63;4935250;28;20057;-87
2022/06/10 08:25:57;;;;;;;6.28;2.60;;;;;;;19.64;57.08;100650.59;4932415;28;20056;-86
2022/06/10 08:28:25;;;;;;;6.53;2.80;;;;;;;19.66;57.11;100656.63;4966453;28;20125;-85
2022/06/10 08:30:52;;;;;;;5.32;2.25;;;;;;;19.71;56.78;100654.28;4949869;28;20498;-84
2022/06/10 08:33:21;;;;;;;6.63;3.00;;;;;;;19.71;57.33;100656.13;4938041;28;20490;-84
2022/06/10 08:35:47;;;;;;;7.72;3.13;;;;;;;19.79;57.00;100653.38;4950078;28;20472;-84
2022/06/10 08:38:16;;;;;;;4.93;3.03;;;;;;;19.87;57.10;100655.22;4970495;28;20058;-84
2022/06/10 08:40:52;;;;;;;5.53;2.50;;;;;;;19.92;56.88;100652.81;4935098;28;20475;-84
2022/06/10 08:43:44;;;;;;;9.50;2.80;;;;;;;19.93;56.22;100654.53;4975568;28;20211;-84
2022/06/10 08:46:19;;;;;;;6.47;2.83;;;;;;;19.96;56.27;100656.84;4952471;28;20109;-85
2022/06/10 08:49:17;;;;;;;8.50;2.33;;;;;;;20.02;56.29;100645.34;4969288;28;20053;-84
2022/06/10 08:52:01;;;;;;;4.47;2.42;;;;;;;19.98;56.05;100638.66;4918879;28;20495;-85
2022/06/10 08:54:46;;;;;;;8.65;2.80;;;;;;;20.14;54.82;100652.03;4978710;28;20066;-85
2022/06/10 08:57:26;;;;;;;8.45;2.85;;;;;;;20.16;54.67;100649.16;4980163;28;20454;-87
2022/06/10 08:59:55;;;;;;;5.78;2.67;;;;;;;20.22;54.55;100647.59;4943568;28;20050;-87
2022/06/10 09:06:31;;;;;;;7.80;3.00;;;;;;;20.26;54.29;100638.16;4936455;28;20029;-86
2022/06/10 09:09:03;;;;;;;8.38;2.55;;;;;;;20.26;53.67;100640.84;4931817;28;20049;-86
2022/06/10 09:11:35;;;;;;;7.18;3.03;;;;;;;20.37;54.09;100643.09;4961129;28;20046;-87
2022/06/10 09:14:16;;;;;;;8.82;2.67;;;;;;;20.34;53.03;100646.16;4959218;28;20055;-87
2022/06/10 09:17:13;;;;;;;7.88;2.53;;;;;;;20.39;52.07;100650.00;4958828;28;20038;-87
2022/06/10 09:19:48;;;;;;;6.65;2.30;;;;;;;20.48;51.18;100645.41;4942642;28;20101;-87
2022/06/10 09:22:34;;;;;;;7.68;2.72;;;;;;;20.44;51.38;100643.25;4973756;28;20051;-87
2022/06/10 09:25:14;;;;;;;6.90;2.50;;;;;;;20.42;51.81;100638.00;4950466;28;20362;-87
2022/06/10 09:27:44;;;;;;;9.63;2.63;;;;;;;20.51;52.15;100638.81;4945165;28;20043;-87
2022/06/10 09:30:14;;;;;;;9.98;3.33;;;;;;;20.51;53.04;100646.91;4941776;28;20134;-87
2022/06/10 09:33:03;;;;;;;5.85;2.50;;;;;;;20.51;51.63;100641.50;4939081;28;20509;-86
2022/06/10 09:35:53;;;;;;;5.28;2.17;;;;;;;20.45;52.59;100634.13;4923742;28;20682;-86
2022/06/10 09:38:29;;;;;;;7.50;2.80;;;;;;;20.53;52.38;100643.00;4993295;28;20134;-86
2022/06/10 09:41:15;;;;;;;8.65;3.03;;;;;;;20.65;52.08;100643.41;4952968;28;20057;-86
2022/06/10 09:44:10;;;;;;;6.07;2.60;;;;;;;20.66;50.96;100642.41;4947963;28;20503;-86
2022/06/10 09:46:40;;;;;;;6.70;2.13;;;;;;;20.67;50.94;100641.38;4905435;28;20065;-86
2022/06/10 09:49:12;;;;;;;7.20;2.50;;;;;;;20.68;50.66;100640.34;4899759;28;20050;-86
2022/06/10 09:52:06;;;;;;;4.70;2.08;;;;;;;20.79;49.26;100641.81;4941445;28;20050;-86
2022/06/10 09:54:39;;;;;;;4.85;1.77;;;;;;;20.71;49.88;100639.16;4954291;28;20171;-86
2022/06/10 09:57:33;;;;;;;3.97;2.28;;;;;;;20.70;49.47;100635.63;4966821;28;20121;-87
2022/06/10 10:00:28;;;;;;;5.35;2.85;;;;;;;20.77;49.54;100638.44;4915868;28;20117;-86
2022/06/10 10:03:10;;;;;;;6.80;2.20;;;;;;;20.71;51.34;100628.34;4964342;28;20042;-86
2022/06/10 10:06:02;;;;;;;5.03;2.15;;;;;;;20.69;51.53;100633.13;4952676;28;20097;-87
2022/06/10 10:08:37;;;;;;;6.55;2.75;;;;;;;20.71;51.92;100621.13;4962373;28;20050;-86
2022/06/10 10:11:03;;;;;;;9.90;2.88;;;;;;;20.85;51.00;100619.47;4967455;28;20050;-85
2022/06/10 10:13:57;;;;;;;7.63;2.40;;;;;;;20.67;49.49;100624.34;4979569;28;20133;-85
2022/06/10 10:16:36;;;;;;;5.82;2.30;;;;;;;20.65;50.88;100624.53;4934432;28;20054;-86
2022/06/10 10:19:17;;;;;;;7.40;2.60;;;;;;;20.52;50.01;100613.50;4965154;28;20050;-86
2022/06/10 10:22:11;;;;;;;7.97;2.15;;;;;;;20.56;49.46;100612.97;4953653;28;20062;-86
2022/06/10 10:24:41;;;;;;;4.85;2.25;;;;;;;20.70;50.59;100614.03;4944591;28;20062;-86
2022/06/10 10:27:20;;;;;;;10.85;2.70;;;;;;;20.70;49.64;100615.91;4970509;28;20065;-85
2022/06/10 10:29:54;;;;;;;7.53;2.35;;;;;;;20.72;49.54;100606.59;4960598;28;20047;-85
2022/06/10 10:32:25;;;;;;;8.57;2.60;;;;;;;20.79;49.82;100614.81;4961924;28;20051;-85
2022/06/10 10:35:00;;;;;;;7.13;2.30;;;;;;;20.79;50.10;100604.00;4931543;28;20086;-84
2022/06/10 10:37:33;;;;;;;7.75;2.20;;;;;;;20.80;50.21;100609.22;4921654;28;20046;-84
2022/06/10 10:40:14;;;;;;;6.88;2.13;;;;;;;20.80;48.86;100606.50;4948710;28;20051;-84
2022/06/10 10:42:42;;;;;;;4.90;2.38;;;;;;;20.80;49.52;100611.06;4978089;28;20375;-84
2022/06/10 10:45:34;;;;;;;5.80;2.53;;;;;;;20.74;48.46;100607.25;4932957;28;20070;-84
2022/06/10 10:48:12;;;;;;;6.85;2.20;;;;;;;20.87;48.27;100612.03;4928926;28;20046;-84
2022/06/10 10:50:40;;;;;;;7.35;2.20;;;;;;;20.91;48.23;100605.22;4976822;28;20050;-84
2022/06/10 10:53:26;;;;;;;6.28;2.20;;;;;;;20.92;48.26;100604.22;4957568;28;20051;-84
2022/06/10 10:55:58;;;;;;;6.10;1.73;;;;;;;20.97;48.68;100598.25;4952265;28;20051;-86
2022/06/10 10:58:37;;;;;;;7.88;2.17;;;;;;;21.03;47.49;100598.34;4946563;28;20047;-87
2022/06/10 11:01:56;;;;;;;5.43;2.00;;;;;;;21.22;47.79;100604.22;4928423;28;20073;-88
2022/06/10 11:03:59;;;;;;;4.40;1.90;;;;;;;21.25;48.41;100607.38;4909522;28;20070;-84
2022/06/10 11:06:33;;;;;;;6.18;2.13;;;;;;;21.32;47.53;100604.78;4953381;28;20067;-86
2022/06/10 11:09:10;;;;;;;8.18;2.20;;;;;;;21.41;47.12;100605.53;4983670;28;20042;-86
2022/06/10 11:11:37;;;;;;;4.78;2.10;;;;;;;21.44;48.21;100605.16;4967175;28;20601;-86
2022/06/10 11:14:25;;;;;;;7.10;2.22;;;;;;;21.50;48.04;100601.72;4968142;28;20070;-86
2022/06/10 11:17:12;;;;;;;5.40;2.28;;;;;;;21.49;46.52;100604.59;4959315;28;20093;-86
2022/06/10 11:19:41;;;;;;;7.13;2.00;;;;;;;21.54;47.02;100599.47;4993174;28;20585;-86
2022/06/10 11:22:16;;;;;;;5.55;2.08;;;;;;;21.50;46.99;100599.03;4979880;28;20137;-86
2022/06/10 11:24:56;;;;;;;7.35;2.28;;;;;;;21.53;47.28;100595.94;4967484;28;20386;-85
2022/06/10 11:27:27;;;;;;;;;;;;;;;21.35;46.77;100596.31;4950168;28;20367;-84
2022/06/10 11:30:22;;;;;;;6.53;2.25;;;;;;;21.51;45.15;100603.38;4968674;28;19926;-85
2022/06/10 11:33:39;;;;;;;4.65;2.13;;;;;;;21.54;44.61;100589.50;4936443;28;20069;-84
2022/06/10 11:36:10;;;;;;;8.02;2.08;;;;;;;21.51;46.08;100581.78;4933805;28;20035;-83
2022/06/10 11:38:53;;;;;;;5.28;2.10;;;;;;;21.61;44.70;100581.47;5002046;28;20409;-84
2022/06/10 11:41:22;;;;;;;2.35;1.80;;;;;;;21.60;46.38;100583.34;4974324;28;20053;-84
2022/06/10 11:43:55;;;;;;;6.95;2.20;;;;;;;21.72;45.67;100577.44;4981431;28;20047;-84
2022/06/10 11:46:43;;;;;;;6.10;1.98;;;;;;;21.59;44.47;100580.81;4948723;28;20050;-84
2022/06/10 11:49:31;;;;;;;4.30;1.92;;;;;;;21.63;44.93;100574.84;4965680;28;20046;-84
2022/06/10 11:52:10;;;;;;;8.18;1.88;;;;;;;21.71;45.31;100565.78;4947112;28;20594;-84
2022/06/10 11:54:59;;;;;;;4.40;2.00;;;;;;;21.75;46.12;100568.94;4976527;28;20055;-84
2022/06/10 12:00:55;;;;;;;4.20;1.77;;;;;;;21.77;44.68;100553.38;4984220;28;20516;-84
2022/06/10 12:03:32;;;;;;;3.95;2.03;;;;;;;21.92;44.59;100554.16;4937605;28;20533;-84
2022/06/10 12:06:21;;;;;;;4.35;1.83;;;;;;;22.01;45.15;100547.59;4976980;28;20518;-84
2022/06/10 12:08:53;;;;;;;6.93;2.10;;;;;;;22.03;44.73;100542.00;4963956;28;20050;-84
2022/06/10 12:11:19;;;;;;;4.97;2.00;;;;;;;22.13;45.24;100545.22;4973207;28;20363;-84
2022/06/10 12:14:08;;;;;;;5.80;2.03;;;;;;;22.08;44.60;100553.94;4973634;28;20050;-84
2022/06/10 12:16:45;;;;;;;4.07;1.80;;;;;;;22.09;44.04;100542.06;4955802;28;20038;-86